createdAt,value
2022-10-23T00:01:44.125Z,12.80
2022-10-23T00:04:21.915Z,12.80
2022-10-23T00:06:50.105Z,12.80
2022-10-23T00:09:21.856Z,12.70
2022-10-23T00:11:51.549Z,12.70
2022-10-23T00:14:23.187Z,12.70
2022-10-23T00:16:50.683Z,12.60
2022-10-23T00:19:17.972Z,12.60
2022-10-23T00:21:45.622Z,12.50
2022-10-23T00:24:13.086Z,12.50
2022-10-23T00:26:40.771Z,12.50
2022-10-23T00:29:09.170Z,12.40
2022-10-23T00:31:36.973Z,12.40
2022-10-23T00:34:08.329Z,12.30
2022-10-23T00:36:36.352Z,12.30
2022-10-23T00:39:04.779Z,12.30
2022-10-23T00:41:32.775Z,12.30
2022-10-23T00:44:10.397Z,12.30
2022-10-23T00:46:40.483Z,12.20
2022-10-23T00:49:08.888Z,12.20
2022-10-23T00:51:51.063Z,12.20
2022-10-23T00:54:24.321Z,12.20
2022-10-23T00:56:55.450Z,12.10
2022-10-23T00:59:23.342Z,12.10
2022-10-23T01:01:50.652Z,12.00
2022-10-23T01:04:18.183Z,12.00
2022-10-23T01:07:17.786Z,12.00
2022-10-23T01:10:02.969Z,11.90
2022-10-23T01:12:44.187Z,11.90
2022-10-23T01:15:28.213Z,11.90
2022-10-23T01:18:08.370Z,11.90
2022-10-23T01:20:59.515Z,11.80
2022-10-23T01:24:04.566Z,11.90
2022-10-23T01:26:55.668Z,11.80
2022-10-23T01:29:46.549Z,11.80
2022-10-23T01:32:38.489Z,11.80
2022-10-23T01:35:28.430Z,11.80
2022-10-23T01:38:15.982Z,11.80
2022-10-23T01:40:57.717Z,11.80
2022-10-23T01:43:52.145Z,11.90
2022-10-23T01:46:19.995Z,11.90
2022-10-23T01:48:53.133Z,11.90
2022-10-23T01:51:24.648Z,11.90
2022-10-23T01:53:56.900Z,11.90
2022-10-23T01:56:33.344Z,11.90
2022-10-23T01:59:06.895Z,11.90
2022-10-23T02:01:35.589Z,11.90
2022-10-23T02:04:06.290Z,11.90
2022-10-23T02:06:33.602Z,11.90
2022-10-23T02:09:00.773Z,11.90
2022-10-23T02:11:27.818Z,11.90
2022-10-23T02:14:10.517Z,12.00
2022-10-23T02:16:51.372Z,12.00
2022-10-23T02:19:33.540Z,12.00
2022-10-23T02:22:11.132Z,12.00
2022-10-23T02:24:57.242Z,12.00
2022-10-23T02:27:38.028Z,12.00
2022-10-23T02:30:08.525Z,12.00
2022-10-23T02:32:43.015Z,12.00
2022-10-23T02:35:10.758Z,12.00
2022-10-23T02:37:38.051Z,12.00
2022-10-23T02:40:06.209Z,12.00
2022-10-23T02:42:43.848Z,12.10
2022-10-23T02:45:36.729Z,12.10
2022-10-23T02:48:18.365Z,12.10
2022-10-23T02:51:04.108Z,12.10
2022-10-23T02:53:53.218Z,12.10
2022-10-23T02:57:21.593Z,12.10
2022-10-23T03:00:13.452Z,12.10
2022-10-23T03:02:57.063Z,12.10
2022-10-23T03:05:31.599Z,12.10
2022-10-23T03:07:58.841Z,12.10
2022-10-23T03:10:26.053Z,12.10
2022-10-23T03:12:53.070Z,12.10
2022-10-23T03:15:20.230Z,12.10
2022-10-23T03:17:47.274Z,12.20
2022-10-23T03:20:14.502Z,12.20
2022-10-23T03:22:41.777Z,12.20
2022-10-23T03:25:09.897Z,12.20
2022-10-23T03:27:37.365Z,12.20
2022-10-23T03:30:06.691Z,12.30
2022-10-23T03:32:33.971Z,12.30
2022-10-23T03:35:01.375Z,12.30
2022-10-23T03:37:28.442Z,12.40
2022-10-23T03:39:55.683Z,12.40
2022-10-23T03:42:22.926Z,12.40
2022-10-23T03:44:50.405Z,12.50
2022-10-23T03:47:17.728Z,12.50
2022-10-23T03:49:44.832Z,12.50
2022-10-23T03:52:12.016Z,12.50
2022-10-23T03:54:39.223Z,12.60
2022-10-23T03:57:06.276Z,12.60
2022-10-23T03:59:33.437Z,12.60
2022-10-23T04:02:00.709Z,12.60
2022-10-23T04:04:27.904Z,12.60
2022-10-23T04:06:55.101Z,12.60
2022-10-23T04:09:22.306Z,12.60
2022-10-23T04:11:49.506Z,12.60
2022-10-23T04:14:16.567Z,12.60
2022-10-23T04:16:43.793Z,12.60
2022-10-23T04:19:10.959Z,12.60
2022-10-23T04:21:38.324Z,12.60
2022-10-23T04:24:06.050Z,12.50
2022-10-23T04:26:33.083Z,12.50
2022-10-23T04:29:00.442Z,12.50
2022-10-23T04:31:27.618Z,12.50
2022-10-23T04:33:54.769Z,12.50
2022-10-23T04:36:21.979Z,12.40
2022-10-23T04:38:49.279Z,12.40
2022-10-23T04:41:16.479Z,12.40
2022-10-23T04:43:43.481Z,12.40
2022-10-23T04:46:10.760Z,12.40
2022-10-23T04:48:37.839Z,12.40
2022-10-23T04:51:06.837Z,12.30
2022-10-23T04:53:34.270Z,12.30
2022-10-23T04:56:01.857Z,12.30
2022-10-23T04:58:30.283Z,12.30
2022-10-23T05:00:58.742Z,12.30
2022-10-23T05:03:26.955Z,12.30
2022-10-23T05:05:56.439Z,12.20
2022-10-23T05:08:24.206Z,12.20
2022-10-23T05:10:51.874Z,12.20
2022-10-23T05:13:20.035Z,12.20
2022-10-23T05:15:51.584Z,12.20
2022-10-23T05:18:29.430Z,12.20
2022-10-23T05:21:03.569Z,12.10
2022-10-23T05:23:33.515Z,12.10
2022-10-23T05:26:00.655Z,12.10
2022-10-23T05:28:27.826Z,12.10
2022-10-23T05:30:55.483Z,12.10
2022-10-23T05:33:22.717Z,12.10
2022-10-23T05:35:49.812Z,12.10
2022-10-23T05:38:17.356Z,12.10
2022-10-23T05:40:44.547Z,12.20
2022-10-23T05:43:11.675Z,12.20
2022-10-23T05:45:38.698Z,12.20
2022-10-23T05:48:16.673Z,12.20
2022-10-23T05:50:49.859Z,12.20
2022-10-23T05:53:16.915Z,12.20
2022-10-23T05:55:44.134Z,12.20
2022-10-23T05:58:11.211Z,12.30
2022-10-23T06:00:38.254Z,12.30
2022-10-23T06:03:05.435Z,12.30
2022-10-23T06:05:32.638Z,12.30
2022-10-23T06:08:01.191Z,12.30
2022-10-23T06:10:28.631Z,12.40
2022-10-23T06:12:55.834Z,12.40
2022-10-23T06:15:23.042Z,12.40
2022-10-23T06:17:50.053Z,12.50
2022-10-23T06:20:17.276Z,12.50
2022-10-23T06:22:44.541Z,12.50
2022-10-23T06:25:11.916Z,12.50
2022-10-23T06:27:38.964Z,12.60
2022-10-23T06:30:07.331Z,12.60
2022-10-23T06:32:34.453Z,12.60
2022-10-23T06:35:01.572Z,12.70
2022-10-23T06:37:28.661Z,12.70
2022-10-23T06:39:55.896Z,12.70
2022-10-23T06:42:23.135Z,12.70
2022-10-23T06:44:50.418Z,12.70
2022-10-23T06:49:50.030Z,12.70
2022-10-23T06:52:41.687Z,12.70
2022-10-23T06:55:04.905Z,12.70
2022-10-23T06:57:32.011Z,12.70
2022-10-23T06:59:59.027Z,12.70
2022-10-23T07:02:26.292Z,12.80
2022-10-23T07:04:53.478Z,12.80
2022-10-23T07:07:20.496Z,12.80
2022-10-23T07:09:47.777Z,12.80
2022-10-23T07:12:14.855Z,12.90
2022-10-23T07:14:41.935Z,12.90
2022-10-23T07:17:08.935Z,13.00
2022-10-23T07:19:36.120Z,13.00
2022-10-23T07:22:03.234Z,13.00
2022-10-23T07:24:31.502Z,13.10
2022-10-23T07:26:58.964Z,13.10
2022-10-23T07:29:26.063Z,13.10
2022-10-23T07:31:53.058Z,13.10
2022-10-23T07:34:20.539Z,13.10
2022-10-23T07:36:47.582Z,13.10
2022-10-23T07:39:14.729Z,13.10
2022-10-23T07:41:41.894Z,13.10
2022-10-23T07:44:09.090Z,13.20
2022-10-23T07:46:36.243Z,13.20
2022-10-23T07:49:03.334Z,13.20
2022-10-23T07:51:30.366Z,13.30
2022-10-23T07:53:57.594Z,13.30
2022-10-23T07:56:29.960Z,13.40
2022-10-23T07:58:57.355Z,13.40
2022-10-23T08:01:37.619Z,13.50
2022-10-23T08:04:06.029Z,13.60
2022-10-23T08:06:35.488Z,13.60
2022-10-23T08:09:06.292Z,13.70
2022-10-23T08:11:38.194Z,13.70
2022-10-23T08:14:06.617Z,13.80
2022-10-23T08:16:36.795Z,13.80
2022-10-23T08:19:06.326Z,13.90
2022-10-23T08:21:33.579Z,14.00
2022-10-23T08:24:01.616Z,14.00
2022-10-23T08:26:29.526Z,14.10
2022-10-23T08:28:59.301Z,14.10
2022-10-23T08:31:26.612Z,14.10
2022-10-23T08:33:53.696Z,14.20
2022-10-23T08:36:24.573Z,14.20
2022-10-23T08:38:56.058Z,14.20
2022-10-23T08:41:28.957Z,14.20
2022-10-23T08:44:46.077Z,14.30
2022-10-23T08:47:48.258Z,14.40
2022-10-23T08:50:31.089Z,14.40
2022-10-23T08:53:24.732Z,14.50
2022-10-23T08:56:23.097Z,14.50
2022-10-23T08:59:25.309Z,14.60
2022-10-23T09:02:18.411Z,14.70
2022-10-23T09:04:51.072Z,14.80
2022-10-23T09:07:49.420Z,14.80
2022-10-23T09:10:30.819Z,14.90
2022-10-23T09:13:13.881Z,14.90
2022-10-23T09:15:48.107Z,15.00
2022-10-23T09:18:17.444Z,15.10
2022-10-23T09:20:47.860Z,15.20
2022-10-23T09:23:22.339Z,15.30
2022-10-23T09:25:55.642Z,15.40
2022-10-23T09:28:31.828Z,15.50
2022-10-23T09:31:12.017Z,15.60
2022-10-23T09:33:39.900Z,15.70
2022-10-23T09:36:16.274Z,15.80
2022-10-23T09:38:46.271Z,16.00
2022-10-23T09:41:36.896Z,16.00
2022-10-23T09:44:28.994Z,16.10
2022-10-23T09:47:08.128Z,16.20
2022-10-23T09:49:35.740Z,16.30
2022-10-23T09:52:13.033Z,16.40
2022-10-23T09:55:15.735Z,16.50
2022-10-23T09:57:45.371Z,16.60
2022-10-23T10:00:25.468Z,16.80
2022-10-23T10:03:02.972Z,16.90
2022-10-23T10:05:39.552Z,17.00
2022-10-23T10:08:09.284Z,17.20
2022-10-23T10:10:42.356Z,17.30
2022-10-23T10:13:34.076Z,17.40
2022-10-23T10:16:49.107Z,17.60
2022-10-23T10:19:42.299Z,17.70
2022-10-23T10:22:32.873Z,17.80
2022-10-23T10:25:18.821Z,18.00
2022-10-23T10:28:11.130Z,18.10
2022-10-23T10:30:55.323Z,18.30
2022-10-23T10:33:28.756Z,18.40
2022-10-23T10:36:28.398Z,18.40
2022-10-23T10:39:04.895Z,18.40
2022-10-23T10:42:04.598Z,18.50
2022-10-23T10:44:49.926Z,18.50
2022-10-23T10:48:00.744Z,18.50
2022-10-23T10:50:47.169Z,18.60
2022-10-23T10:54:05.779Z,18.80
2022-10-23T10:56:39.283Z,18.90
2022-10-23T10:59:28.050Z,19.00
2022-10-23T11:02:50.664Z,19.20
2022-10-23T11:05:31.652Z,19.30
2022-10-23T11:08:15.344Z,19.50
2022-10-23T11:10:47.103Z,19.60
2022-10-23T11:13:36.607Z,19.80
2022-10-23T11:16:32.818Z,19.90
2022-10-23T11:20:08.181Z,20.10
2022-10-23T11:22:48.554Z,20.30
2022-10-23T11:25:40.076Z,20.40
2022-10-23T11:28:29.293Z,20.60
2022-10-23T11:31:28.241Z,20.70
2022-10-23T11:34:04.341Z,20.90
2022-10-23T11:36:59.185Z,21.00
2022-10-23T11:39:35.146Z,21.20
2022-10-23T11:42:05.099Z,21.40
2022-10-23T11:44:35.760Z,21.50
2022-10-23T11:47:29.434Z,21.60
2022-10-23T11:50:08.560Z,21.80
2022-10-23T11:53:12.944Z,21.90
2022-10-23T11:56:06.878Z,22.00
2022-10-23T11:58:46.958Z,22.20
2022-10-23T12:01:40.557Z,22.30
2022-10-23T12:04:25.170Z,22.40
2022-10-23T12:07:05.890Z,22.50
2022-10-23T12:09:56.020Z,22.60
2022-10-23T12:12:42.736Z,22.70
2022-10-23T12:15:22.488Z,22.70
2022-10-23T12:17:51.689Z,22.80
2022-10-23T12:20:57.140Z,22.80
2022-10-23T12:23:36.279Z,22.80
2022-10-23T12:26:33.600Z,22.90
2022-10-23T12:29:49.984Z,22.90
2022-10-23T12:32:31.998Z,22.90
2022-10-23T12:35:17.497Z,22.90
2022-10-23T12:38:07.820Z,23.00
2022-10-23T12:40:35.029Z,23.00
2022-10-23T12:43:02.594Z,23.00
2022-10-23T12:45:40.422Z,23.00
2022-10-23T12:48:22.143Z,23.00
2022-10-23T12:50:52.800Z,22.90
2022-10-23T12:53:23.069Z,23.00
2022-10-23T12:56:02.293Z,23.00
2022-10-23T12:58:35.440Z,23.00
2022-10-23T13:01:05.935Z,22.90
2022-10-23T13:03:34.581Z,22.90
2022-10-23T13:06:03.357Z,22.90
2022-10-23T13:08:49.502Z,22.90
2022-10-23T13:11:20.548Z,23.00
2022-10-23T13:13:49.452Z,23.00
2022-10-23T13:16:23.252Z,23.00
2022-10-23T13:18:51.480Z,23.00
2022-10-23T13:21:28.561Z,23.00
2022-10-23T13:23:56.569Z,23.10
2022-10-23T13:26:45.672Z,23.10
2022-10-23T13:29:30.060Z,23.10
2022-10-23T13:31:58.319Z,23.10
2022-10-23T13:34:29.962Z,23.10
2022-10-23T13:37:27.434Z,23.20
2022-10-23T13:40:25.770Z,23.20
2022-10-23T13:42:56.172Z,23.20
2022-10-23T13:45:26.175Z,23.10
2022-10-23T13:47:54.609Z,23.10
2022-10-23T13:50:21.797Z,23.00
2022-10-23T13:52:48.840Z,23.00
2022-10-23T13:55:25.986Z,23.00
2022-10-23T13:57:53.273Z,23.10
2022-10-23T14:00:20.564Z,23.10
2022-10-23T14:02:47.715Z,23.10
2022-10-23T14:05:15.096Z,23.20
2022-10-23T14:07:42.532Z,23.20
2022-10-23T14:10:10.051Z,23.30
2022-10-23T14:12:44.513Z,23.30
2022-10-23T14:15:12.445Z,23.30
2022-10-23T14:17:39.487Z,23.40
2022-10-23T14:20:07.808Z,23.40
2022-10-23T14:22:35.124Z,23.50
2022-10-23T14:25:02.432Z,23.60
2022-10-23T14:27:30.507Z,23.70
2022-10-23T14:29:59.481Z,23.70
2022-10-23T14:32:26.612Z,23.80
2022-10-23T14:34:54.833Z,23.80
2022-10-23T14:37:23.162Z,23.80
2022-10-23T14:39:50.524Z,23.80
2022-10-23T14:42:18.056Z,23.80
2022-10-23T14:44:45.341Z,23.70
2022-10-23T14:47:12.372Z,23.70
2022-10-23T14:49:40.444Z,23.60
2022-10-23T14:52:08.120Z,23.50
2022-10-23T14:54:36.494Z,23.50
2022-10-23T14:57:04.597Z,23.40
2022-10-23T14:59:31.850Z,23.40
2022-10-23T15:01:58.953Z,23.30
2022-10-23T15:04:26.284Z,23.30
2022-10-23T15:06:53.306Z,23.20
2022-10-23T15:09:20.563Z,23.10
2022-10-23T15:11:48.499Z,23.00
2022-10-23T15:14:15.670Z,22.90
2022-10-23T15:16:42.779Z,22.80
2022-10-23T15:19:15.274Z,22.70
2022-10-23T15:21:46.143Z,22.60
2022-10-23T15:24:13.541Z,22.50
2022-10-23T15:26:43.164Z,22.40
2022-10-23T15:29:11.405Z,22.30
2022-10-23T15:31:38.670Z,22.20
2022-10-23T15:34:06.572Z,22.10
2022-10-23T15:36:34.166Z,21.90
2022-10-23T15:39:01.534Z,21.80
2022-10-23T15:41:32.516Z,21.70
2022-10-23T15:44:01.155Z,21.60
2022-10-23T15:46:28.649Z,21.40
2022-10-23T15:48:55.765Z,21.30
2022-10-23T15:51:23.103Z,21.20
2022-10-23T15:53:50.539Z,21.10
2022-10-23T15:56:17.740Z,20.90
2022-10-23T15:58:44.807Z,20.80
2022-10-23T16:01:12.630Z,20.70
2022-10-23T16:03:40.143Z,20.60
2022-10-23T16:06:11.700Z,20.50
2022-10-23T16:08:39.700Z,20.40
2022-10-23T16:11:17.858Z,20.30
2022-10-23T16:13:45.269Z,20.20
2022-10-23T16:16:13.591Z,20.10
2022-10-23T16:18:41.259Z,20.00
2022-10-23T16:21:13.381Z,19.90
2022-10-23T16:23:40.375Z,19.80
2022-10-23T16:26:07.601Z,19.70
2022-10-23T16:28:34.744Z,19.60
2022-10-23T16:31:02.374Z,19.50
2022-10-23T16:33:29.397Z,19.40
2022-10-23T16:36:03.251Z,19.30
2022-10-23T16:38:30.322Z,19.20
2022-10-23T16:40:57.479Z,19.10
2022-10-23T16:43:25.128Z,19.10
2022-10-23T16:46:08.941Z,19.00
2022-10-23T16:48:36.236Z,18.90
2022-10-23T16:51:09.856Z,18.90
2022-10-23T16:53:37.866Z,18.80
2022-10-23T16:56:07.803Z,18.70
2022-10-23T16:58:35.739Z,18.60
2022-10-23T17:01:10.399Z,18.60
2022-10-23T17:03:40.570Z,18.50
2022-10-23T17:06:12.179Z,18.50
2022-10-23T17:08:40.470Z,18.40
2022-10-23T17:11:25.142Z,18.40
2022-10-23T17:14:15.705Z,18.30
2022-10-23T17:16:47.654Z,18.30
2022-10-23T17:19:33.098Z,18.20
2022-10-23T17:22:04.028Z,18.20
2022-10-23T17:24:31.218Z,18.20
2022-10-23T17:26:58.350Z,18.10
2022-10-23T17:29:25.569Z,18.00
2022-10-23T17:31:52.632Z,18.00
2022-10-23T17:34:23.010Z,18.00
2022-10-23T17:36:53.607Z,17.90
2022-10-23T17:39:29.257Z,17.90
2022-10-23T17:41:56.769Z,17.90
2022-10-23T17:44:24.925Z,17.80
2022-10-23T17:46:55.811Z,17.80
2022-10-23T17:49:24.904Z,17.80
2022-10-23T17:51:57.791Z,17.80
2022-10-23T17:54:26.681Z,17.80
2022-10-23T17:56:54.214Z,17.80
2022-10-23T17:59:21.420Z,17.70
2022-10-23T18:01:49.649Z,17.70
2022-10-23T18:04:20.260Z,17.70
2022-10-23T18:06:51.230Z,17.70
2022-10-23T18:09:19.799Z,17.70
2022-10-23T18:11:48.339Z,17.70
2022-10-23T18:14:18.112Z,17.60
2022-10-23T18:16:48.379Z,17.60
2022-10-23T18:19:20.508Z,17.60
2022-10-23T18:21:48.928Z,17.60
2022-10-23T18:24:17.282Z,17.50
2022-10-23T18:26:46.065Z,17.50
2022-10-23T18:29:14.836Z,17.50
2022-10-23T18:31:43.433Z,17.50
2022-10-23T18:34:25.560Z,17.40
2022-10-23T18:36:54.340Z,17.40
2022-10-23T18:39:25.122Z,17.40
2022-10-23T18:41:57.557Z,17.40
2022-10-23T18:44:29.031Z,17.30
2022-10-23T18:46:58.270Z,17.30
2022-10-23T18:49:26.000Z,17.30
2022-10-23T18:51:53.432Z,17.20
2022-10-23T18:54:22.246Z,17.20
2022-10-23T18:56:49.518Z,17.20
2022-10-23T18:59:20.526Z,17.10
2022-10-23T19:01:48.162Z,17.10
2022-10-23T19:04:17.894Z,17.10
2022-10-23T19:06:47.466Z,17.10
2022-10-23T19:09:15.639Z,17.10
2022-10-23T19:11:43.467Z,17.10
2022-10-23T19:14:11.068Z,17.00
2022-10-23T19:17:02.002Z,17.00
2022-10-23T19:19:35.426Z,17.00
2022-10-23T19:22:04.011Z,17.00
2022-10-23T19:24:44.390Z,17.00
2022-10-23T19:27:11.711Z,17.00
2022-10-23T19:29:43.269Z,16.90
2022-10-23T19:32:10.823Z,17.00
2022-10-23T19:34:38.328Z,16.90
2022-10-23T19:37:05.619Z,16.90
2022-10-23T19:39:32.954Z,16.90
2022-10-23T19:42:00.485Z,16.90
2022-10-23T19:44:27.890Z,16.90
2022-10-23T19:46:55.064Z,16.80
2022-10-23T19:49:24.093Z,16.80
2022-10-23T19:51:51.719Z,16.80
2022-10-23T19:54:20.996Z,16.80
2022-10-23T19:56:49.172Z,16.80
2022-10-23T19:59:16.772Z,16.80
2022-10-23T20:01:46.477Z,16.80
2022-10-23T20:04:16.856Z,16.80
2022-10-23T20:06:44.174Z,16.80
2022-10-23T20:09:11.422Z,16.80
2022-10-23T20:11:40.420Z,16.70
2022-10-23T20:14:08.346Z,16.70
2022-10-23T20:16:38.853Z,16.70
2022-10-23T20:19:10.341Z,16.70
2022-10-23T20:21:44.010Z,16.70
2022-10-23T20:24:14.509Z,16.70
2022-10-23T20:26:46.388Z,16.60
2022-10-23T20:29:13.426Z,16.60
2022-10-23T20:31:41.129Z,16.60
2022-10-23T20:34:08.582Z,16.60
2022-10-23T20:36:46.492Z,16.50
2022-10-23T20:39:25.659Z,16.50
2022-10-23T20:41:55.367Z,16.50
2022-10-23T20:44:23.904Z,16.50
2022-10-23T20:46:52.008Z,16.40
2022-10-23T20:49:19.948Z,16.40
2022-10-23T20:51:55.010Z,16.40
2022-10-23T20:54:28.899Z,16.30
2022-10-23T20:56:59.448Z,16.30
2022-10-23T20:59:26.586Z,16.20
2022-10-23T21:01:55.587Z,16.20
2022-10-23T21:04:30.028Z,16.20
2022-10-23T21:07:14.134Z,16.20
2022-10-23T21:09:41.363Z,16.10
2022-10-23T21:12:09.285Z,16.10
2022-10-23T21:14:36.837Z,16.10
2022-10-23T21:17:04.264Z,16.10
2022-10-23T21:19:31.316Z,16.10
2022-10-23T21:21:58.403Z,16.00
2022-10-23T21:24:25.657Z,16.00
2022-10-23T21:26:52.777Z,16.00
2022-10-23T21:29:20.596Z,16.00
2022-10-23T21:32:01.689Z,16.00
2022-10-23T21:34:29.845Z,16.00
2022-10-23T21:37:14.133Z,16.00
2022-10-23T21:39:43.100Z,16.00
2022-10-23T21:42:12.209Z,16.00
2022-10-23T21:44:39.601Z,15.90
2022-10-23T21:47:07.375Z,15.90
2022-10-23T21:49:34.606Z,15.90
2022-10-23T21:52:02.058Z,15.90
2022-10-23T21:54:29.225Z,15.90
2022-10-23T21:56:56.340Z,15.90
2022-10-23T21:59:28.891Z,15.80
2022-10-23T22:01:57.697Z,15.80
2022-10-23T22:04:24.975Z,15.80
2022-10-23T22:06:53.239Z,15.80
2022-10-23T22:09:21.653Z,15.80
2022-10-23T22:11:51.645Z,15.80
2022-10-23T22:14:19.211Z,15.80
2022-10-23T22:16:46.697Z,15.80
2022-10-23T22:19:16.941Z,15.80
2022-10-23T22:21:44.343Z,15.80
2022-10-23T22:24:11.831Z,15.80
2022-10-23T22:26:43.569Z,15.80
2022-10-23T22:29:14.209Z,15.80
2022-10-23T22:31:45.588Z,15.80
2022-10-23T22:34:28.686Z,15.80
2022-10-23T22:37:10.075Z,15.90
2022-10-23T22:39:38.104Z,15.90
2022-10-23T22:42:05.386Z,15.90
2022-10-23T22:44:32.565Z,15.80
2022-10-23T22:46:59.698Z,15.80
2022-10-23T22:49:26.900Z,15.80
2022-10-23T22:51:53.977Z,15.80
2022-10-23T22:54:21.179Z,15.70
2022-10-23T22:56:48.214Z,15.70
2022-10-23T22:59:15.355Z,15.70
2022-10-23T23:01:46.413Z,15.70
2022-10-23T23:04:37.813Z,15.70
2022-10-23T23:07:07.575Z,15.70
2022-10-23T23:09:40.868Z,15.70
2022-10-23T23:12:10.797Z,15.70
2022-10-23T23:14:39.124Z,15.80
2022-10-23T23:17:07.772Z,15.80
2022-10-23T23:19:36.025Z,15.80
2022-10-23T23:22:03.136Z,15.70
2022-10-23T23:24:30.418Z,15.80
2022-10-23T23:26:57.546Z,15.70
2022-10-23T23:29:24.858Z,15.70
2022-10-23T23:31:51.970Z,15.70
2022-10-23T23:34:19.065Z,15.80
2022-10-23T23:36:46.258Z,15.80
2022-10-23T23:39:13.464Z,15.80
2022-10-23T23:41:40.504Z,15.80
2022-10-23T23:44:08.477Z,15.80
2022-10-23T23:46:35.639Z,15.80
2022-10-23T23:49:02.853Z,15.80
2022-10-23T23:51:29.946Z,15.80
2022-10-23T23:53:56.967Z,15.80
2022-10-23T23:56:24.136Z,15.80
2022-10-23T23:58:51.244Z,15.80
